createdAt,value
2023-01-18T00:01:19.477Z,73.98
2023-01-18T00:03:46.485Z,74.35
2023-01-18T00:06:13.207Z,74.27
2023-01-18T00:08:42.343Z,74.30
2023-01-18T00:11:12.436Z,73.99
2023-01-18T00:13:39.702Z,74.09
2023-01-18T00:16:13.902Z,73.91
2023-01-18T00:18:40.827Z,74.05
2023-01-18T00:21:10.346Z,73.98
2023-01-18T00:23:37.855Z,74.04
2023-01-18T00:26:10.188Z,74.30
2023-01-18T00:28:37.926Z,74.27
2023-01-18T00:31:20.400Z,74.11
2023-01-18T00:33:49.096Z,74.47
2023-01-18T00:36:16.981Z,74.57
2023-01-18T00:38:51.564Z,74.22
2023-01-18T00:41:18.986Z,74.67
2023-01-18T00:43:45.657Z,74.75
2023-01-18T00:46:19.826Z,74.24
2023-01-18T00:48:47.097Z,74.37
2023-01-18T00:51:16.337Z,74.51
2023-01-18T00:53:46.671Z,74.59
2023-01-18T00:56:16.037Z,74.49
2023-01-18T00:58:43.123Z,74.37
2023-01-18T01:01:10.618Z,74.41
2023-01-18T01:03:56.731Z,74.53
2023-01-18T01:06:45.378Z,74.48
2023-01-18T01:09:15.891Z,74.54
2023-01-18T01:12:02.004Z,74.83
2023-01-18T01:14:47.362Z,74.63
2023-01-18T01:17:33.119Z,74.69
2023-01-18T01:20:18.557Z,74.80
2023-01-18T01:23:04.093Z,75.15
2023-01-18T01:25:49.684Z,75.06
2023-01-18T01:28:16.416Z,74.52
2023-01-18T01:30:44.702Z,74.56
2023-01-18T01:33:11.793Z,74.36
2023-01-18T01:35:38.467Z,74.46
2023-01-18T01:38:24.199Z,74.36
2023-01-18T01:41:07.137Z,74.48
2023-01-18T01:43:39.971Z,74.62
2023-01-18T01:46:16.249Z,74.50
2023-01-18T01:48:43.287Z,74.24
2023-01-18T01:51:11.400Z,74.21
2023-01-18T01:53:38.750Z,74.06
2023-01-18T01:56:05.465Z,74.35
2023-01-18T01:58:32.521Z,74.15
2023-01-18T02:00:59.651Z,74.26
2023-01-18T02:03:26.744Z,74.17
2023-01-18T02:06:04.260Z,73.97
2023-01-18T02:08:31.173Z,74.03
2023-01-18T02:10:57.914Z,74.30
2023-01-18T02:13:25.973Z,73.98
2023-01-18T02:15:52.540Z,74.16
2023-01-18T02:18:34.137Z,73.93
2023-01-18T02:21:10.383Z,74.23
2023-01-18T02:23:46.158Z,74.29
2023-01-18T02:26:21.709Z,74.35
2023-01-18T02:28:59.971Z,74.38
2023-01-18T02:31:33.575Z,74.43
2023-01-18T02:34:09.091Z,75.08
2023-01-18T02:37:04.347Z,75.13
2023-01-18T02:39:52.434Z,75.19
2023-01-18T02:42:41.247Z,75.35
2023-01-18T02:45:53.479Z,75.14
2023-01-18T02:48:25.363Z,74.82
2023-01-18T02:50:52.268Z,75.06
2023-01-18T02:53:18.957Z,74.78
2023-01-18T02:56:08.712Z,74.79
2023-01-18T02:58:42.381Z,74.55
2023-01-18T03:01:18.943Z,74.70
2023-01-18T03:03:50.036Z,74.48
2023-01-18T03:06:18.395Z,74.27
2023-01-18T03:08:48.850Z,74.38
2023-01-18T03:11:30.063Z,74.44
2023-01-18T03:14:02.406Z,74.48
2023-01-18T03:16:41.381Z,74.55
2023-01-18T03:19:40.619Z,74.55
2023-01-18T03:22:07.349Z,74.37
2023-01-18T03:24:41.255Z,74.16
2023-01-18T03:27:28.153Z,74.25
2023-01-18T03:30:14.426Z,74.56
2023-01-18T03:33:00.726Z,74.52
2023-01-18T03:35:30.731Z,74.67
2023-01-18T03:37:59.585Z,75.03
2023-01-18T03:40:30.992Z,75.15
2023-01-18T03:43:09.351Z,75.06
2023-01-18T03:45:42.924Z,75.19
2023-01-18T03:48:10.924Z,75.44
2023-01-18T03:50:57.204Z,75.50
2023-01-18T03:53:39.288Z,75.27
2023-01-18T03:56:21.386Z,75.40
2023-01-18T03:58:51.311Z,75.30
2023-01-18T04:01:18.776Z,75.11
2023-01-18T04:03:45.693Z,75.29
2023-01-18T04:06:12.516Z,74.83
2023-01-18T04:08:39.175Z,74.56
2023-01-18T04:11:06.010Z,74.32
2023-01-18T04:13:32.759Z,74.44
2023-01-18T04:15:59.281Z,74.17
2023-01-18T04:18:26.125Z,74.15
2023-01-18T04:20:56.544Z,74.79
2023-01-18T04:23:24.290Z,74.67
2023-01-18T04:25:51.909Z,74.45
2023-01-18T04:28:25.522Z,74.30
2023-01-18T04:30:53.892Z,74.49
2023-01-18T04:33:22.041Z,74.57
2023-01-18T04:35:50.022Z,74.51
2023-01-18T04:38:17.013Z,74.58
2023-01-18T04:40:43.664Z,74.66
2023-01-18T04:43:10.342Z,74.79
2023-01-18T04:45:37.057Z,74.73
2023-01-18T04:48:04.155Z,74.38
2023-01-18T04:50:30.923Z,74.31
2023-01-18T04:52:58.167Z,74.39
2023-01-18T04:55:25.031Z,74.60
2023-01-18T04:57:59.291Z,74.58
2023-01-18T05:00:26.065Z,74.02
2023-01-18T05:02:52.569Z,73.97
2023-01-18T05:05:19.204Z,74.23
2023-01-18T05:07:45.953Z,74.43
2023-01-18T05:10:12.904Z,74.25
2023-01-18T05:12:39.752Z,74.69
2023-01-18T05:15:07.215Z,74.78
2023-01-18T05:17:34.771Z,75.03
2023-01-18T05:20:03.225Z,74.72
2023-01-18T05:22:30.221Z,74.56
2023-01-18T05:24:56.816Z,74.50
2023-01-18T05:27:23.550Z,74.31
2023-01-18T05:29:50.228Z,74.18
2023-01-18T05:32:17.743Z,74.23
2023-01-18T05:34:44.485Z,74.05
2023-01-18T05:37:11.104Z,73.98
2023-01-18T05:39:37.809Z,73.91
2023-01-18T05:42:05.827Z,74.31
2023-01-18T05:44:32.547Z,74.30
2023-01-18T05:46:59.118Z,74.16
2023-01-18T05:49:25.875Z,74.03
2023-01-18T05:51:52.520Z,74.64
2023-01-18T05:54:20.112Z,74.14
2023-01-18T05:56:46.784Z,74.32
2023-01-18T05:59:15.696Z,74.10
2023-01-18T06:01:42.815Z,73.95
2023-01-18T06:04:09.694Z,74.07
2023-01-18T06:06:36.330Z,74.10
2023-01-18T06:09:03.712Z,74.16
2023-01-18T06:11:30.457Z,74.33
2023-01-18T06:13:57.013Z,74.21
2023-01-18T06:16:24.653Z,74.28
2023-01-18T06:18:51.498Z,73.96
2023-01-18T06:21:19.106Z,74.26
2023-01-18T06:23:45.924Z,74.35
2023-01-18T06:26:12.674Z,74.51
2023-01-18T06:28:39.319Z,74.66
2023-01-18T06:31:08.358Z,74.54
2023-01-18T06:33:35.171Z,74.52
2023-01-18T06:36:02.190Z,74.12
2023-01-18T06:38:29.908Z,74.14
2023-01-18T06:40:57.526Z,74.50
2023-01-18T06:43:24.264Z,74.43
2023-01-18T06:45:54.927Z,74.38
2023-01-18T06:48:24.098Z,74.20
2023-01-18T06:50:52.547Z,73.81
2023-01-18T06:53:20.685Z,74.17
2023-01-18T06:55:58.585Z,74.20
2023-01-18T06:58:28.922Z,74.53
2023-01-18T07:00:58.986Z,74.56
2023-01-18T07:03:27.756Z,74.80
2023-01-18T07:05:55.799Z,74.81
2023-01-18T07:08:23.687Z,74.98
2023-01-18T07:10:52.642Z,74.71
2023-01-18T07:13:20.022Z,74.46
2023-01-18T07:15:54.240Z,74.26
2023-01-18T07:18:21.044Z,74.02
2023-01-18T07:20:47.686Z,73.48
2023-01-18T07:23:14.688Z,73.89
2023-01-18T07:25:41.445Z,74.15
2023-01-18T07:28:09.171Z,74.16
2023-01-18T07:30:35.815Z,74.14
2023-01-18T07:33:02.503Z,74.55
2023-01-18T07:35:29.144Z,74.53
2023-01-18T07:37:55.953Z,74.50
2023-01-18T07:40:22.808Z,74.56
2023-01-18T07:42:57.296Z,74.27
2023-01-18T07:45:24.205Z,74.15
2023-01-18T07:47:53.072Z,74.16
2023-01-18T07:50:22.057Z,73.81
2023-01-18T07:52:49.026Z,73.08
2023-01-18T07:55:15.753Z,72.92
2023-01-18T07:57:42.887Z,72.79
2023-01-18T08:00:11.334Z,72.67
2023-01-18T08:02:41.237Z,72.55
2023-01-18T08:05:10.624Z,72.70
2023-01-18T08:07:37.361Z,73.11
2023-01-18T08:10:04.016Z,73.19
2023-01-18T08:12:30.743Z,73.21
2023-01-18T08:14:57.552Z,73.20
2023-01-18T08:17:24.257Z,73.24
2023-01-18T08:19:50.839Z,73.25
2023-01-18T08:22:17.481Z,73.33
2023-01-18T08:24:44.138Z,73.39
2023-01-18T08:27:10.964Z,73.38
2023-01-18T08:29:37.791Z,73.28
2023-01-18T08:32:04.533Z,73.44
2023-01-18T08:34:31.224Z,73.37
2023-01-18T08:36:57.869Z,73.63
2023-01-18T08:39:24.512Z,73.82
2023-01-18T08:41:51.246Z,73.57
2023-01-18T08:44:17.855Z,73.12
2023-01-18T08:46:44.639Z,73.45
2023-01-18T08:49:11.611Z,73.27
2023-01-18T08:51:38.359Z,73.69
2023-01-18T08:54:06.629Z,73.54
2023-01-18T08:56:33.875Z,73.43
2023-01-18T08:59:00.879Z,73.31
2023-01-18T09:01:27.646Z,73.65
2023-01-18T09:03:56.141Z,73.50
2023-01-18T09:06:22.908Z,73.64
2023-01-18T09:08:49.763Z,73.88
2023-01-18T09:11:17.437Z,73.91
2023-01-18T09:13:59.411Z,73.99
2023-01-18T09:16:27.427Z,74.06
2023-01-18T09:18:56.452Z,74.11
2023-01-18T09:21:24.026Z,74.17
2023-01-18T09:23:51.089Z,74.59
2023-01-18T09:26:20.861Z,74.51
2023-01-18T09:28:51.189Z,74.44
2023-01-18T09:31:19.860Z,74.52
2023-01-18T09:33:53.158Z,74.58
2023-01-18T09:36:26.436Z,74.38
2023-01-18T09:38:54.037Z,74.37
2023-01-18T09:41:44.539Z,74.52
2023-01-18T09:44:24.141Z,74.45
2023-01-18T09:46:58.383Z,74.33
2023-01-18T09:49:38.349Z,74.33
2023-01-18T09:52:42.743Z,74.46
2023-01-18T09:55:19.962Z,74.25
2023-01-18T09:58:04.960Z,74.52
2023-01-18T10:00:36.748Z,74.37
2023-01-18T10:03:15.308Z,74.39
2023-01-18T10:05:53.956Z,74.41
2023-01-18T10:08:29.581Z,74.02
2023-01-18T10:11:09.805Z,74.09
2023-01-18T10:13:43.246Z,74.07
2023-01-18T10:16:15.753Z,74.46
2023-01-18T10:18:48.392Z,74.40
2023-01-18T10:21:22.766Z,74.58
2023-01-18T10:24:22.210Z,75.00
2023-01-18T10:26:53.007Z,74.96
2023-01-18T10:29:45.314Z,75.11
2023-01-18T10:32:20.539Z,74.93
2023-01-18T10:34:51.975Z,74.95
2023-01-18T10:37:37.640Z,75.41
2023-01-18T10:40:07.785Z,75.36
2023-01-18T10:42:45.007Z,75.03
2023-01-18T10:45:21.229Z,75.31
2023-01-18T10:47:53.331Z,75.54
2023-01-18T10:50:35.713Z,75.32
2023-01-18T10:53:33.858Z,75.54
2023-01-18T10:56:09.715Z,75.54
2023-01-18T10:58:52.729Z,75.31
2023-01-18T11:01:27.446Z,75.43
2023-01-18T11:04:05.930Z,75.08
2023-01-18T11:06:53.741Z,75.14
2023-01-18T11:09:59.733Z,74.78
2023-01-18T11:12:38.555Z,74.84
2023-01-18T11:15:14.263Z,75.21
2023-01-18T11:17:44.607Z,74.73
2023-01-18T11:20:20.063Z,74.43
2023-01-18T11:22:59.166Z,74.22
2023-01-18T11:25:27.748Z,74.07
2023-01-18T11:28:02.117Z,73.96
2023-01-18T11:30:29.641Z,73.38
2023-01-18T11:33:00.335Z,73.74
2023-01-18T11:35:33.914Z,73.65
2023-01-18T11:38:02.784Z,72.84
2023-01-18T11:40:32.387Z,73.22
2023-01-18T11:43:10.069Z,72.99
2023-01-18T11:45:45.490Z,72.93
2023-01-18T11:48:15.637Z,72.94
2023-01-18T11:50:47.235Z,72.88
2023-01-18T11:53:49.836Z,72.36
2023-01-18T11:56:41.295Z,71.88
2023-01-18T11:59:19.090Z,72.12
2023-01-18T12:01:57.994Z,71.23
2023-01-18T12:04:33.283Z,71.12
2023-01-18T12:07:31.174Z,70.86
2023-01-18T12:10:01.265Z,70.53
2023-01-18T12:12:49.720Z,70.91
2023-01-18T12:15:28.281Z,70.82
2023-01-18T12:18:27.653Z,70.77
2023-01-18T12:21:13.710Z,70.67
2023-01-18T12:24:11.340Z,70.76
2023-01-18T12:26:56.392Z,70.61
2023-01-18T12:29:44.877Z,70.88
2023-01-18T12:32:50.411Z,71.51
2023-01-18T12:35:23.982Z,71.73
2023-01-18T12:38:24.957Z,71.63
2023-01-18T12:41:13.274Z,71.45
2023-01-18T12:44:17.286Z,71.68
2023-01-18T12:47:11.962Z,71.76
2023-01-18T12:49:50.060Z,72.01
2023-01-18T12:52:21.341Z,71.88
2023-01-18T12:54:52.154Z,72.09
2023-01-18T12:57:21.241Z,71.87
2023-01-18T13:00:25.078Z,72.28
2023-01-18T13:02:57.401Z,72.42
2023-01-18T13:05:36.060Z,72.62
2023-01-18T13:08:15.048Z,72.78
2023-01-18T13:10:42.940Z,72.51
2023-01-18T13:13:21.969Z,72.75
2023-01-18T13:15:51.250Z,72.84
2023-01-18T13:18:27.781Z,72.99
2023-01-18T13:21:00.220Z,72.74
2023-01-18T13:23:46.822Z,72.60
2023-01-18T13:26:24.838Z,72.76
2023-01-18T13:29:08.263Z,73.06
2023-01-18T13:31:35.378Z,73.54
2023-01-18T13:34:03.451Z,73.21
2023-01-18T13:36:44.866Z,72.73
2023-01-18T13:39:17.621Z,72.49
2023-01-18T13:42:21.931Z,72.30
2023-01-18T13:44:50.554Z,72.32
2023-01-18T13:47:35.618Z,72.21
2023-01-18T13:50:02.531Z,72.10
2023-01-18T13:52:35.504Z,72.26
2023-01-18T13:55:16.985Z,72.41
2023-01-18T13:57:54.742Z,72.43
2023-01-18T14:00:24.661Z,72.25
2023-01-18T14:02:56.907Z,72.35
2023-01-18T14:05:28.869Z,72.25
2023-01-18T14:08:01.874Z,72.17
2023-01-18T14:10:37.091Z,72.17
2023-01-18T14:13:16.743Z,72.36
2023-01-18T14:15:49.136Z,72.20
2023-01-18T14:18:27.309Z,72.15
2023-01-18T14:21:20.577Z,72.60
2023-01-18T14:24:25.335Z,72.46
2023-01-18T14:26:55.218Z,72.27
2023-01-18T14:29:55.360Z,72.24
2023-01-18T14:32:27.545Z,72.40
2023-01-18T14:35:02.401Z,72.63
2023-01-18T14:37:34.576Z,72.90
2023-01-18T14:40:26.583Z,72.89
2023-01-18T14:42:58.634Z,72.82
2023-01-18T14:45:29.607Z,72.94
2023-01-18T14:48:02.650Z,72.86
2023-01-18T14:50:33.732Z,72.76
2023-01-18T14:53:01.383Z,72.39
2023-01-18T14:55:32.119Z,72.51
2023-01-18T14:58:19.027Z,72.11
2023-01-18T15:00:53.890Z,72.37
2023-01-18T15:03:28.804Z,72.30
2023-01-18T15:06:11.406Z,72.56
2023-01-18T15:08:39.576Z,72.65
2023-01-18T15:11:07.208Z,72.29
2023-01-18T15:13:47.620Z,72.63
2023-01-18T15:16:18.549Z,72.28
2023-01-18T15:18:48.867Z,71.85
2023-01-18T15:21:22.676Z,72.22
2023-01-18T15:23:52.608Z,72.21
2023-01-18T15:26:33.966Z,72.59
2023-01-18T15:29:13.981Z,72.54
2023-01-18T15:31:57.422Z,72.61
2023-01-18T15:34:35.422Z,72.53
2023-01-18T15:37:05.610Z,72.63
2023-01-18T15:39:33.287Z,72.82
2023-01-18T15:42:09.070Z,72.54
2023-01-18T15:44:51.503Z,72.50
2023-01-18T15:47:32.890Z,72.54
2023-01-18T15:50:01.994Z,72.85
2023-01-18T15:52:43.977Z,72.55
2023-01-18T15:55:49.853Z,72.91
2023-01-18T15:58:41.467Z,72.94
2023-01-18T16:01:16.031Z,73.29
2023-01-18T16:03:48.790Z,73.45
2023-01-18T16:06:17.262Z,73.58
2023-01-18T16:09:16.065Z,73.64
2023-01-18T16:11:46.577Z,73.74
2023-01-18T16:14:21.106Z,73.66
2023-01-18T16:16:48.591Z,73.44
2023-01-18T16:19:41.797Z,73.61
2023-01-18T16:22:22.127Z,73.14
2023-01-18T16:24:53.498Z,73.30
2023-01-18T16:27:22.956Z,73.36
2023-01-18T16:30:01.650Z,73.30
2023-01-18T16:32:34.572Z,72.96
2023-01-18T16:35:17.412Z,73.41
2023-01-18T16:37:44.835Z,73.37
2023-01-18T16:40:20.366Z,73.50
2023-01-18T16:43:02.788Z,73.60
2023-01-18T16:45:33.017Z,73.43
2023-01-18T16:48:00.315Z,73.42
2023-01-18T16:50:27.681Z,73.15
2023-01-18T16:52:55.824Z,73.42
2023-01-18T16:55:22.775Z,73.23
2023-01-18T16:57:51.565Z,73.24
2023-01-18T17:00:19.898Z,73.04
2023-01-18T17:02:47.260Z,73.42
2023-01-18T17:05:15.944Z,72.93
2023-01-18T17:07:43.246Z,73.08
2023-01-18T17:10:27.579Z,73.30
2023-01-18T17:12:55.331Z,73.56
2023-01-18T17:15:22.151Z,73.47
2023-01-18T17:17:50.106Z,73.33
2023-01-18T17:20:20.513Z,73.43
2023-01-18T17:22:47.806Z,73.40
2023-01-18T17:25:15.475Z,73.30
2023-01-18T17:27:42.605Z,73.28
2023-01-18T17:30:11.213Z,73.44
2023-01-18T17:32:38.158Z,73.61
2023-01-18T17:35:06.836Z,73.57
2023-01-18T17:37:34.287Z,73.51
2023-01-18T17:40:22.797Z,73.60
2023-01-18T17:42:51.842Z,73.33
2023-01-18T17:45:18.929Z,73.57
2023-01-18T17:47:45.598Z,73.44
2023-01-18T17:50:14.455Z,73.63
2023-01-18T17:52:41.467Z,73.75
2023-01-18T17:55:11.846Z,73.57
2023-01-18T17:57:38.749Z,73.61
2023-01-18T18:00:08.078Z,73.59
2023-01-18T18:02:35.558Z,73.61
2023-01-18T18:05:02.555Z,73.58
2023-01-18T18:07:29.899Z,73.65
2023-01-18T18:10:01.138Z,73.94
2023-01-18T18:12:29.665Z,73.69
2023-01-18T18:14:57.129Z,73.93
2023-01-18T18:17:25.633Z,73.62
2023-01-18T18:19:52.270Z,73.67
2023-01-18T18:22:22.107Z,73.89
2023-01-18T18:24:49.632Z,73.99
2023-01-18T18:27:17.417Z,74.03
2023-01-18T18:29:44.613Z,73.81
2023-01-18T18:32:11.955Z,73.87
2023-01-18T18:34:38.671Z,74.15
2023-01-18T18:37:05.304Z,73.78
2023-01-18T18:39:32.987Z,74.22
2023-01-18T18:42:00.534Z,73.93
2023-01-18T18:44:27.692Z,74.05
2023-01-18T18:46:54.521Z,74.01
2023-01-18T18:49:21.835Z,74.30
2023-01-18T18:51:48.722Z,73.80
2023-01-18T18:54:15.796Z,74.32
2023-01-18T18:56:42.734Z,75.05
2023-01-18T18:59:09.619Z,74.22
2023-01-18T19:01:36.673Z,73.79
2023-01-18T19:04:05.358Z,73.61
2023-01-18T19:06:32.743Z,73.95
2023-01-18T19:08:59.450Z,74.01
2023-01-18T19:11:26.149Z,74.07
2023-01-18T19:13:54.017Z,73.88
2023-01-18T19:16:20.840Z,73.69
2023-01-18T19:18:47.618Z,73.54
2023-01-18T19:21:14.363Z,73.53
2023-01-18T19:23:41.000Z,73.39
2023-01-18T19:26:07.686Z,73.31
2023-01-18T19:28:34.271Z,73.74
2023-01-18T19:31:05.116Z,73.51
2023-01-18T19:33:31.880Z,73.49
2023-01-18T19:35:58.626Z,73.64
2023-01-18T19:38:25.406Z,73.66
2023-01-18T19:40:52.230Z,73.62
2023-01-18T19:43:20.035Z,73.22
2023-01-18T19:45:46.858Z,73.65
2023-01-18T19:48:13.508Z,73.70
2023-01-18T19:50:40.251Z,73.62
2023-01-18T19:53:06.835Z,73.52
2023-01-18T19:55:37.216Z,73.60
2023-01-18T19:58:04.055Z,73.58
2023-01-18T20:00:30.756Z,73.74
2023-01-18T20:02:58.012Z,73.58
2023-01-18T20:05:25.796Z,73.09
2023-01-18T20:07:52.534Z,73.05
2023-01-18T20:10:20.615Z,72.89
2023-01-18T20:12:48.406Z,73.71
2023-01-18T20:15:17.383Z,74.70
2023-01-18T20:17:44.037Z,74.06
2023-01-18T20:20:14.255Z,74.07
2023-01-18T20:22:46.825Z,73.49
2023-01-18T20:25:13.660Z,73.58
2023-01-18T20:27:40.391Z,73.83
2023-01-18T20:30:08.051Z,73.48
2023-01-18T20:32:34.855Z,73.46
2023-01-18T20:35:01.636Z,73.18
2023-01-18T20:37:28.265Z,73.28
2023-01-18T20:39:56.035Z,73.07
2023-01-18T20:42:22.684Z,72.90
2023-01-18T20:44:53.616Z,73.15
2023-01-18T20:47:20.371Z,73.04
2023-01-18T20:49:47.120Z,73.19
2023-01-18T20:52:14.132Z,72.94
2023-01-18T20:54:40.848Z,73.21
2023-01-18T20:57:07.335Z,73.52
2023-01-18T20:59:34.070Z,73.28
2023-01-18T21:02:01.076Z,73.05
2023-01-18T21:04:27.970Z,72.78
2023-01-18T21:06:57.290Z,72.65
2023-01-18T21:09:24.923Z,73.27
2023-01-18T21:11:51.963Z,72.89
2023-01-18T21:14:18.674Z,72.75
2023-01-18T21:16:45.612Z,72.47
2023-01-18T21:19:12.798Z,72.84
2023-01-18T21:21:39.394Z,72.73
2023-01-18T21:24:06.896Z,73.30
2023-01-18T21:26:33.743Z,73.17
2023-01-18T21:29:00.400Z,72.67
2023-01-18T21:31:27.343Z,72.69
2023-01-18T21:33:54.911Z,72.33
2023-01-18T21:36:23.190Z,72.40
2023-01-18T21:38:50.298Z,72.27
2023-01-18T21:41:35.471Z,72.49
2023-01-18T21:44:20.600Z,72.12
2023-01-18T21:46:48.802Z,72.22
2023-01-18T21:49:52.109Z,72.22
2023-01-18T21:52:40.004Z,72.77
2023-01-18T21:55:06.765Z,72.76
2023-01-18T21:57:33.472Z,73.13
2023-01-18T22:00:00.072Z,72.49
2023-01-18T22:02:26.930Z,72.49
2023-01-18T22:05:19.850Z,72.20
2023-01-18T22:07:46.532Z,72.43
2023-01-18T22:10:13.414Z,72.44
2023-01-18T22:12:40.313Z,72.56
2023-01-18T22:15:07.331Z,72.50
2023-01-18T22:17:34.013Z,72.55
2023-01-18T22:20:02.056Z,72.29
2023-01-18T22:22:28.852Z,71.92
2023-01-18T22:24:56.582Z,72.33
2023-01-18T22:27:23.246Z,72.34
2023-01-18T22:29:49.926Z,72.52
2023-01-18T22:32:17.046Z,71.95
2023-01-18T22:34:43.715Z,71.71
2023-01-18T22:37:10.581Z,71.59
2023-01-18T22:39:37.434Z,71.59
2023-01-18T22:42:04.139Z,71.63
2023-01-18T22:44:32.941Z,71.86
2023-01-18T22:46:59.667Z,71.56
2023-01-18T22:49:26.290Z,71.43
2023-01-18T22:51:53.075Z,71.42
2023-01-18T22:54:22.578Z,71.46
2023-01-18T22:56:49.336Z,71.59
2023-01-18T22:59:15.958Z,71.86
2023-01-18T23:01:42.808Z,72.23
2023-01-18T23:04:09.963Z,71.89
2023-01-18T23:06:46.663Z,71.79
2023-01-18T23:09:17.631Z,71.66
2023-01-18T23:11:45.485Z,71.63
2023-01-18T23:14:30.710Z,71.77
2023-01-18T23:17:16.311Z,71.89
2023-01-18T23:19:42.951Z,72.21
2023-01-18T23:22:10.901Z,72.32
2023-01-18T23:24:38.971Z,72.93
2023-01-18T23:27:07.710Z,73.11
2023-01-18T23:29:34.526Z,72.80
2023-01-18T23:32:01.647Z,72.55
2023-01-18T23:34:28.345Z,72.26
2023-01-18T23:36:55.252Z,72.23
2023-01-18T23:39:40.438Z,71.85
2023-01-18T23:42:25.627Z,72.04
2023-01-18T23:45:10.837Z,72.09
2023-01-18T23:47:56.653Z,72.03
2023-01-18T23:50:41.935Z,71.94
2023-01-18T23:53:31.644Z,72.15
2023-01-18T23:55:59.262Z,72.02
2023-01-18T23:58:26.031Z,72.20
